createdAt,value
2023-04-05T00:09:20.646Z,32.80
2023-04-05T00:19:23.116Z,32.76
2023-04-05T00:29:24.887Z,32.52
2023-04-05T00:39:26.448Z,32.45
2023-04-05T00:49:29.641Z,32.57
2023-04-05T00:59:31.156Z,32.67
2023-04-05T01:09:48.612Z,32.78
2023-04-05T01:19:53.951Z,32.87
2023-04-05T01:30:09.455Z,33.08
2023-04-05T01:40:11.034Z,33.24
2023-04-05T01:50:12.604Z,33.39
2023-04-05T02:00:14.094Z,33.50
2023-04-05T02:10:15.878Z,33.64
2023-04-05T02:20:18.398Z,33.92
2023-04-05T02:30:19.814Z,34.02
2023-04-05T02:40:22.740Z,34.21
2023-04-05T02:50:24.245Z,34.22
2023-04-05T03:00:25.742Z,34.29
2023-04-05T03:10:28.985Z,34.38
2023-04-05T03:20:30.456Z,34.63
2023-04-05T03:30:35.561Z,34.33
2023-04-05T03:40:36.980Z,34.01
2023-04-05T03:50:38.403Z,33.67
2023-04-05T04:00:39.822Z,33.43
2023-04-05T04:10:41.237Z,33.28
2023-04-05T04:20:42.867Z,33.00
2023-04-05T04:30:44.340Z,32.90
2023-04-05T04:40:51.040Z,32.93
2023-04-05T04:50:52.581Z,33.00
2023-04-05T05:00:54.153Z,32.93
2023-04-05T05:10:55.856Z,33.12
2023-04-05T05:20:57.279Z,32.95
2023-04-05T05:30:58.823Z,33.03
2023-04-05T05:41:00.500Z,32.94
2023-04-05T05:51:02.182Z,32.77
2023-04-05T06:01:03.993Z,32.75
2023-04-05T06:11:05.685Z,32.75
2023-04-05T06:21:07.164Z,32.52
2023-04-05T06:31:10.366Z,31.76
2023-04-05T06:41:13.177Z,31.08
2023-04-05T06:51:14.801Z,30.54
2023-04-05T07:01:17.416Z,30.06
2023-04-05T07:11:18.964Z,29.56
2023-04-05T07:21:20.384Z,29.24
2023-04-05T07:31:21.927Z,28.77
2023-04-05T07:41:25.227Z,28.36
2023-04-05T07:51:27.213Z,27.91
2023-04-05T08:01:28.742Z,27.59
2023-04-05T08:11:30.222Z,27.26
2023-04-05T08:21:31.707Z,26.89
2023-04-05T08:31:34.048Z,26.22
2023-04-05T08:41:36.475Z,26.03
2023-04-05T08:51:40.754Z,25.43
2023-04-05T09:01:48.952Z,24.37
2023-04-05T09:11:51.077Z,22.93
2023-04-05T09:22:05.884Z,19.73
2023-04-05T09:32:08.482Z,19.27
2023-04-05T09:42:15.431Z,21.01
2023-04-05T09:52:24.631Z,22.11
2023-04-05T10:02:26.300Z,22.67
2023-04-05T10:12:28.589Z,25.01
2023-04-05T10:22:33.942Z,26.10
2023-04-05T10:32:44.098Z,26.63
2023-04-05T10:42:45.791Z,26.95
2023-04-05T10:52:47.255Z,27.15
2023-04-05T11:02:48.827Z,27.37
2023-04-05T11:12:50.353Z,27.47
2023-04-05T11:22:54.411Z,27.87
2023-04-05T11:32:56.046Z,28.18
2023-04-05T11:43:11.134Z,28.08
2023-04-05T11:53:13.333Z,28.04
2023-04-05T12:03:15.411Z,27.89
2023-04-05T12:13:25.658Z,27.98
2023-04-05T12:23:27.211Z,28.22
2023-04-05T12:33:33.146Z,28.50
2023-04-05T12:43:41.732Z,28.36
2023-04-05T12:53:47.498Z,28.84
2023-04-05T13:03:49.875Z,28.82
2023-04-05T13:13:51.424Z,28.98
2023-04-05T13:23:52.853Z,29.22
2023-04-05T13:33:54.274Z,29.02
2023-04-05T13:43:55.703Z,29.06
2023-04-05T13:53:57.778Z,29.07
2023-04-05T14:03:59.196Z,29.39
2023-04-05T14:14:00.864Z,29.17
2023-04-05T14:24:02.336Z,29.56
2023-04-05T14:34:03.943Z,29.91
2023-04-05T14:44:05.706Z,29.86
2023-04-05T14:54:07.158Z,30.08
2023-04-05T15:04:09.454Z,30.18
2023-04-05T15:14:21.016Z,30.26
2023-04-05T15:24:30.164Z,30.56
2023-04-05T15:34:31.627Z,30.29
2023-04-05T15:44:33.113Z,30.81
2023-04-05T15:54:34.526Z,31.03
2023-04-05T16:04:35.968Z,31.05
2023-04-05T16:14:37.597Z,31.02
2023-04-05T16:24:39.338Z,31.13
2023-04-05T16:34:41.273Z,30.95
2023-04-05T16:44:42.724Z,31.17
2023-04-05T16:54:44.123Z,31.29
2023-04-05T17:04:46.224Z,31.39
2023-04-05T17:14:47.731Z,31.45
2023-04-05T17:24:49.321Z,31.56
2023-04-05T17:34:51.108Z,31.68
2023-04-05T17:44:54.282Z,31.90
2023-04-05T17:54:57.258Z,32.02
2023-04-05T18:04:58.678Z,32.09
2023-04-05T18:15:00.210Z,32.24
2023-04-05T18:25:02.207Z,32.34
2023-04-05T18:35:03.816Z,32.56
2023-04-05T18:45:05.682Z,32.66
2023-04-05T18:55:07.655Z,32.63
2023-04-05T19:05:09.631Z,32.75
2023-04-05T19:15:11.207Z,32.78
2023-04-05T19:25:12.765Z,32.96
2023-04-05T19:35:14.177Z,32.95
2023-04-05T19:45:17.363Z,33.04
2023-04-05T19:55:31.777Z,33.14
2023-04-05T20:05:42.242Z,33.13
2023-04-05T20:15:45.548Z,33.24
2023-04-05T20:25:47.100Z,33.34
2023-04-05T20:35:48.698Z,33.34
2023-04-05T20:45:53.051Z,33.39
2023-04-05T20:55:55.096Z,33.40
2023-04-05T21:05:57.651Z,33.46
2023-04-05T21:15:59.319Z,33.54
2023-04-05T21:26:01.134Z,33.61
2023-04-05T21:36:02.626Z,33.63
2023-04-05T21:46:04.214Z,33.88
2023-04-05T21:56:05.885Z,33.83
2023-04-05T22:06:07.360Z,33.99
2023-04-05T22:16:09.018Z,34.12
2023-04-05T22:26:10.528Z,34.15
2023-04-05T22:36:12.174Z,34.24
2023-04-05T22:46:13.723Z,34.35
2023-04-05T22:56:15.314Z,34.40
2023-04-05T23:06:16.711Z,34.43
2023-04-05T23:16:18.263Z,34.46
2023-04-05T23:26:21.136Z,34.55
2023-04-05T23:36:22.717Z,34.50
2023-04-05T23:46:24.350Z,34.42
2023-04-05T23:56:26.303Z,34.55
